createdAt,value
2018-05-10T00:02:00.626Z,13.10
2018-05-10T00:04:28.894Z,13.00
2018-05-10T00:06:56.458Z,13.00
2018-05-10T00:09:25.043Z,13.20
2018-05-10T00:11:52.590Z,13.10
2018-05-10T00:14:20.091Z,13.20
2018-05-10T00:16:47.906Z,13.10
2018-05-10T00:19:15.386Z,13.00
2018-05-10T00:21:42.889Z,13.10
2018-05-10T00:24:10.692Z,13.00
2018-05-10T00:26:38.193Z,13.00
2018-05-10T00:29:05.714Z,12.90
2018-05-10T00:31:34.306Z,13.00
2018-05-10T00:34:01.846Z,13.00
2018-05-10T00:36:29.322Z,12.90
2018-05-10T00:38:58.799Z,12.90
2018-05-10T00:41:26.274Z,12.90
2018-05-10T00:43:55.143Z,12.90
2018-05-10T00:46:22.951Z,12.90
2018-05-10T00:48:50.434Z,12.90
2018-05-10T00:51:17.949Z,12.80
2018-05-10T00:53:46.546Z,12.70
2018-05-10T00:56:14.066Z,12.70
2018-05-10T00:58:41.565Z,12.70
2018-05-10T01:01:09.414Z,12.60
2018-05-10T01:03:37.782Z,12.60
2018-05-10T01:06:05.270Z,12.60
2018-05-10T01:08:33.021Z,12.70
2018-05-10T01:11:00.494Z,12.60
2018-05-10T01:13:27.990Z,12.60
2018-05-10T01:15:55.818Z,12.70
2018-05-10T01:18:23.374Z,12.70
2018-05-10T01:20:50.856Z,12.60
2018-05-10T01:23:18.662Z,12.60
2018-05-10T01:25:46.142Z,12.60
2018-05-10T01:28:13.615Z,12.60
2018-05-10T01:30:41.728Z,12.70
2018-05-10T01:33:09.234Z,12.90
2018-05-10T01:35:48.735Z,12.80
2018-05-10T01:38:16.226Z,12.90
2018-05-10T01:40:43.766Z,12.80
2018-05-10T01:43:11.515Z,12.70
2018-05-10T01:45:39.017Z,12.80
2018-05-10T01:48:06.563Z,12.80
2018-05-10T01:50:35.142Z,12.80
2018-05-10T01:53:03.380Z,12.70
2018-05-10T01:55:30.857Z,12.70
2018-05-10T01:57:58.662Z,12.80
2018-05-10T02:00:26.182Z,12.90
2018-05-10T02:02:53.685Z,12.90
2018-05-10T02:05:21.451Z,12.90
2018-05-10T02:07:48.933Z,12.90
2018-05-10T02:10:16.444Z,12.90
2018-05-10T02:12:44.218Z,12.90
2018-05-10T02:15:11.693Z,12.90
2018-05-10T02:17:39.198Z,13.00
2018-05-10T02:20:07.731Z,13.20
2018-05-10T02:22:35.246Z,13.20
2018-05-10T02:25:03.515Z,13.20
2018-05-10T02:27:32.082Z,13.30
2018-05-10T02:29:59.582Z,13.20
2018-05-10T02:32:27.073Z,13.10
2018-05-10T02:34:54.831Z,13.10
2018-05-10T02:37:22.329Z,13.00
2018-05-10T02:39:49.844Z,12.90
2018-05-10T02:42:17.659Z,13.10
2018-05-10T02:44:45.158Z,13.00
2018-05-10T02:47:12.637Z,13.20
2018-05-10T02:49:40.434Z,13.00
2018-05-10T02:52:08.677Z,12.90
2018-05-10T02:54:36.180Z,12.90
2018-05-10T02:57:04.683Z,12.80
2018-05-10T02:59:32.192Z,12.80
2018-05-10T03:01:59.690Z,12.90
2018-05-10T03:04:27.440Z,12.90
2018-05-10T03:06:54.926Z,13.00
2018-05-10T03:09:22.446Z,13.00
2018-05-10T03:11:51.220Z,12.90
2018-05-10T03:14:18.722Z,12.80
2018-05-10T03:16:46.204Z,12.90
2018-05-10T03:19:14.095Z,12.80
2018-05-10T03:21:41.578Z,12.80
2018-05-10T03:24:09.820Z,12.60
2018-05-10T03:26:37.556Z,12.60
2018-05-10T03:29:05.034Z,12.60
2018-05-10T03:31:32.519Z,12.70
2018-05-10T03:34:01.096Z,12.50
2018-05-10T03:36:28.574Z,12.50
2018-05-10T03:38:56.827Z,12.20
2018-05-10T03:41:24.598Z,12.20
2018-05-10T03:43:52.086Z,12.20
2018-05-10T03:46:19.674Z,12.30
2018-05-10T03:48:47.330Z,12.30
2018-05-10T03:51:14.862Z,12.40
2018-05-10T03:53:42.361Z,12.40
2018-05-10T03:56:10.178Z,12.30
2018-05-10T03:58:37.669Z,12.30
2018-05-10T04:01:05.150Z,12.30
2018-05-10T04:03:57.572Z,12.30
2018-05-10T04:06:36.721Z,12.10
2018-05-10T04:09:16.023Z,12.30
2018-05-10T04:11:43.502Z,12.30
2018-05-10T04:14:11.030Z,12.30
2018-05-10T04:16:38.834Z,12.20
2018-05-10T04:19:06.343Z,12.10
2018-05-10T04:21:33.842Z,12.20
2018-05-10T04:24:01.643Z,12.10
2018-05-10T04:26:29.920Z,12.00
2018-05-10T04:28:57.388Z,11.90
2018-05-10T04:31:25.167Z,12.00
2018-05-10T04:33:52.720Z,12.00
2018-05-10T04:36:20.201Z,12.20
2018-05-10T04:38:47.968Z,12.10
2018-05-10T04:41:15.467Z,12.10
2018-05-10T04:43:42.970Z,12.10
2018-05-10T04:46:10.803Z,12.10
2018-05-10T04:48:38.201Z,12.10
2018-05-10T04:51:05.699Z,12.10
2018-05-10T04:53:33.505Z,12.10
2018-05-10T04:56:00.999Z,12.10
2018-05-10T04:58:28.504Z,12.10
2018-05-10T05:00:57.030Z,12.20
2018-05-10T05:03:24.582Z,12.20
2018-05-10T05:05:52.003Z,12.20
2018-05-10T05:08:19.750Z,12.20
2018-05-10T05:10:48.023Z,12.20
2018-05-10T05:13:15.510Z,12.10
2018-05-10T05:15:43.278Z,12.20
2018-05-10T05:18:10.756Z,12.20
2018-05-10T05:20:38.241Z,12.20
2018-05-10T05:23:06.779Z,12.30
2018-05-10T05:25:34.280Z,12.30
2018-05-10T05:28:01.756Z,12.30
2018-05-10T05:30:30.349Z,12.30
2018-05-10T05:32:58.624Z,12.40
2018-05-10T05:35:26.889Z,12.30
2018-05-10T05:37:54.702Z,12.30
2018-05-10T05:40:22.176Z,12.30
2018-05-10T05:42:49.649Z,12.30
2018-05-10T05:45:17.418Z,12.40
2018-05-10T05:47:44.893Z,12.30
2018-05-10T05:50:13.144Z,12.20
2018-05-10T05:52:40.921Z,12.20
2018-05-10T05:55:08.637Z,12.30
2018-05-10T05:57:35.999Z,12.20
2018-05-10T06:00:03.760Z,12.30
2018-05-10T06:02:31.256Z,12.30
2018-05-10T06:04:59.538Z,12.40
2018-05-10T06:07:27.048Z,12.40
2018-05-10T06:09:54.530Z,12.50
2018-05-10T06:12:22.021Z,12.40
2018-05-10T06:14:50.528Z,12.30
2018-05-10T06:17:18.014Z,12.30
2018-05-10T06:19:45.540Z,12.30
2018-05-10T06:22:13.330Z,12.30
2018-05-10T06:24:40.876Z,12.40
2018-05-10T06:27:08.367Z,12.40
2018-05-10T06:29:35.862Z,12.40
2018-05-10T06:32:03.389Z,12.50
2018-05-10T06:34:30.885Z,12.60
2018-05-10T06:36:58.378Z,12.60
2018-05-10T06:39:25.855Z,12.60
2018-05-10T06:41:53.355Z,12.60
2018-05-10T06:44:21.119Z,12.60
2018-05-10T06:46:48.670Z,12.60
2018-05-10T06:49:16.114Z,12.50
2018-05-10T06:51:44.641Z,12.60
2018-05-10T06:54:12.123Z,12.60
2018-05-10T06:56:39.614Z,12.70
2018-05-10T06:59:08.194Z,12.60
2018-05-10T07:01:36.492Z,12.60
2018-05-10T07:04:03.993Z,12.60
2018-05-10T07:06:31.812Z,12.70
2018-05-10T07:08:59.295Z,12.70
2018-05-10T07:11:26.801Z,12.80
2018-05-10T07:13:55.366Z,12.90
2018-05-10T07:16:22.864Z,12.90
2018-05-10T07:18:50.615Z,13.00
2018-05-10T07:21:19.121Z,13.10
2018-05-10T07:23:46.627Z,13.10
2018-05-10T07:26:14.137Z,13.20
2018-05-10T07:28:42.023Z,13.30
2018-05-10T07:31:09.567Z,13.30
2018-05-10T07:33:37.074Z,13.50
2018-05-10T07:36:04.843Z,13.50
2018-05-10T07:38:32.352Z,13.50
2018-05-10T07:40:59.853Z,13.60
2018-05-10T07:43:27.630Z,13.60
2018-05-10T07:45:55.110Z,13.50
2018-05-10T07:48:22.594Z,13.50
2018-05-10T07:50:50.375Z,13.50
2018-05-10T07:53:17.949Z,13.50
2018-05-10T07:55:45.390Z,13.50
2018-05-10T07:58:13.170Z,13.60
2018-05-10T08:00:40.664Z,13.60
2018-05-10T08:03:08.179Z,13.70
2018-05-10T08:05:35.991Z,13.70
2018-05-10T08:08:03.514Z,13.80
2018-05-10T08:10:31.044Z,14.00
2018-05-10T08:12:58.834Z,13.90
2018-05-10T08:15:27.766Z,13.90
2018-05-10T08:17:55.529Z,13.90
2018-05-10T08:20:23.058Z,14.00
2018-05-10T08:22:51.372Z,13.90
2018-05-10T08:25:19.009Z,13.90
2018-05-10T08:27:47.299Z,14.20
2018-05-10T08:30:14.858Z,14.20
2018-05-10T08:32:43.101Z,14.20
2018-05-10T08:35:10.620Z,14.20
2018-05-10T08:37:38.124Z,14.10
2018-05-10T08:40:06.404Z,14.30
2018-05-10T08:42:34.985Z,14.20
2018-05-10T08:45:02.495Z,14.20
2018-05-10T08:47:29.999Z,14.30
2018-05-10T08:49:57.563Z,14.50
2018-05-10T08:52:25.179Z,14.60
2018-05-10T08:54:52.695Z,14.90
2018-05-10T08:57:20.960Z,15.60
2018-05-10T08:59:49.226Z,15.70
2018-05-10T09:02:16.699Z,15.70
2018-05-10T09:04:44.601Z,15.70
2018-05-10T09:07:12.125Z,15.50
2018-05-10T09:09:40.394Z,15.30
2018-05-10T09:12:08.942Z,15.10
2018-05-10T09:14:36.459Z,15.10
2018-05-10T09:17:04.030Z,14.80
2018-05-10T09:19:31.598Z,14.70
2018-05-10T09:21:59.103Z,14.70
2018-05-10T09:24:27.399Z,14.40
2018-05-10T09:26:54.901Z,14.40
2018-05-10T09:29:22.411Z,14.30
2018-05-10T09:31:49.910Z,14.30
2018-05-10T09:34:17.414Z,14.10
2018-05-10T09:36:45.665Z,14.00
2018-05-10T09:39:13.218Z,14.00
2018-05-10T09:41:41.443Z,14.80
2018-05-10T09:44:08.930Z,14.80
2018-05-10T09:46:36.418Z,15.20
2018-05-10T09:49:03.951Z,15.70
2018-05-10T09:51:31.552Z,15.20
2018-05-10T09:53:59.816Z,15.10
2018-05-10T09:56:27.310Z,15.10
2018-05-10T09:58:54.817Z,15.20
2018-05-10T10:01:22.374Z,15.30
2018-05-10T10:03:49.870Z,15.50
2018-05-10T10:06:18.199Z,15.70
2018-05-10T10:08:45.610Z,15.70
2018-05-10T10:11:13.160Z,15.40
2018-05-10T10:13:41.410Z,15.10
2018-05-10T10:16:08.902Z,15.10
2018-05-10T10:18:36.738Z,15.20
2018-05-10T10:21:04.221Z,15.10
2018-05-10T10:23:32.458Z,15.80
2018-05-10T10:26:00.258Z,15.80
2018-05-10T10:28:28.531Z,16.80
2018-05-10T10:30:56.801Z,16.70
2018-05-10T10:33:24.747Z,16.60
2018-05-10T10:35:52.236Z,17.20
2018-05-10T10:38:19.789Z,17.80
2018-05-10T10:40:47.269Z,17.50
2018-05-10T10:43:14.768Z,17.50
2018-05-10T10:45:42.284Z,17.50
2018-05-10T10:48:10.033Z,17.30
2018-05-10T10:50:40.696Z,17.50
2018-05-10T10:53:15.729Z,17.50
2018-05-10T10:55:44.272Z,17.60
2018-05-10T10:58:12.193Z,17.80
2018-05-10T11:00:40.807Z,17.80
2018-05-10T11:03:08.941Z,17.70
2018-05-10T11:05:36.461Z,18.20
2018-05-10T11:08:04.625Z,18.30
2018-05-10T11:10:32.187Z,18.10
2018-05-10T11:13:00.457Z,18.00
2018-05-10T11:15:29.031Z,18.30
2018-05-10T11:17:56.518Z,18.30
2018-05-10T11:20:24.002Z,18.00
2018-05-10T11:22:51.779Z,17.60
2018-05-10T11:25:19.262Z,17.50
2018-05-10T11:27:46.819Z,18.00
2018-05-10T11:30:14.359Z,18.10
2018-05-10T11:32:42.209Z,18.30
2018-05-10T11:35:09.713Z,18.40
2018-05-10T11:37:37.596Z,18.60
2018-05-10T11:40:05.121Z,18.40
2018-05-10T11:42:32.612Z,18.10
2018-05-10T11:45:00.426Z,17.50
2018-05-10T11:47:27.921Z,17.00
2018-05-10T11:49:55.444Z,16.40
2018-05-10T11:52:22.923Z,16.90
2018-05-10T11:54:50.406Z,16.80
2018-05-10T11:57:17.919Z,16.70
2018-05-10T11:59:45.426Z,16.50
2018-05-10T12:02:12.900Z,17.40
2018-05-10T12:04:40.418Z,17.50
2018-05-10T12:07:07.942Z,17.70
2018-05-10T12:09:35.744Z,18.10
2018-05-10T12:12:04.030Z,18.60
2018-05-10T12:14:32.294Z,18.60
2018-05-10T12:16:59.824Z,18.50
2018-05-10T12:19:27.320Z,18.00
2018-05-10T12:21:54.880Z,17.60
2018-05-10T12:24:22.356Z,17.90
2018-05-10T12:26:50.003Z,18.00
2018-05-10T12:29:17.499Z,17.70
2018-05-10T12:31:45.071Z,17.80
2018-05-10T12:34:12.738Z,17.60
2018-05-10T12:36:40.230Z,17.60
2018-05-10T12:39:08.533Z,17.60
2018-05-10T12:41:36.249Z,17.60
2018-05-10T12:44:05.607Z,18.00
2018-05-10T12:46:33.593Z,18.20
2018-05-10T12:49:01.895Z,18.40
2018-05-10T12:51:29.506Z,18.40
2018-05-10T12:53:57.088Z,18.60
2018-05-10T12:56:24.693Z,18.30
2018-05-10T12:58:52.171Z,18.30
2018-05-10T13:01:19.790Z,18.00
2018-05-10T13:03:47.260Z,18.00
2018-05-10T13:06:15.068Z,18.10
2018-05-10T13:08:42.575Z,18.20
2018-05-10T13:11:10.808Z,18.20
2018-05-10T13:13:38.631Z,18.20
2018-05-10T13:16:06.239Z,18.30
2018-05-10T13:18:34.407Z,18.80
2018-05-10T13:21:02.246Z,18.80
2018-05-10T13:23:29.734Z,18.80
2018-05-10T13:25:57.231Z,18.60
2018-05-10T13:28:25.030Z,18.80
2018-05-10T13:30:52.581Z,18.20
2018-05-10T13:33:20.062Z,17.80
2018-05-10T13:35:47.818Z,17.50
2018-05-10T13:38:15.348Z,17.50
2018-05-10T13:40:42.786Z,17.40
2018-05-10T13:43:10.293Z,17.70
2018-05-10T13:45:37.810Z,17.60
2018-05-10T13:48:05.942Z,18.00
2018-05-10T13:50:33.709Z,18.30
2018-05-10T13:53:01.272Z,19.00
2018-05-10T13:55:28.697Z,17.50
2018-05-10T13:57:56.466Z,17.30
2018-05-10T14:00:23.971Z,17.50
2018-05-10T14:02:52.250Z,17.60
2018-05-10T14:05:20.776Z,17.50
2018-05-10T14:07:48.277Z,17.50
2018-05-10T14:10:15.755Z,17.60
2018-05-10T14:12:43.353Z,17.70
2018-05-10T14:15:10.771Z,17.30
2018-05-10T14:17:39.014Z,17.50
2018-05-10T14:20:06.503Z,17.50
2018-05-10T14:22:34.757Z,16.70
2018-05-10T14:25:02.247Z,16.60
2018-05-10T14:27:30.036Z,16.60
2018-05-10T14:29:57.515Z,16.50
2018-05-10T14:32:25.174Z,16.60
2018-05-10T14:34:52.637Z,17.10
2018-05-10T14:37:20.172Z,17.60
2018-05-10T14:39:47.671Z,16.90
2018-05-10T14:42:15.175Z,16.90
2018-05-10T14:44:42.662Z,17.30
2018-05-10T14:47:10.168Z,17.30
2018-05-10T14:49:37.663Z,17.10
2018-05-10T14:52:05.177Z,17.10
2018-05-10T14:54:33.423Z,16.60
2018-05-10T14:57:01.229Z,16.60
2018-05-10T14:59:28.706Z,16.60
2018-05-10T15:01:56.190Z,16.50
2018-05-10T15:04:23.994Z,16.30
2018-05-10T15:06:52.235Z,16.20
2018-05-10T15:09:19.711Z,16.20
2018-05-10T15:11:47.972Z,15.90
2018-05-10T15:14:15.442Z,15.90
2018-05-10T15:16:43.695Z,15.90
2018-05-10T15:19:11.266Z,15.90
2018-05-10T15:21:38.834Z,16.20
2018-05-10T15:24:07.137Z,15.90
2018-05-10T15:26:34.926Z,15.90
2018-05-10T15:29:02.434Z,15.50
2018-05-10T15:31:29.922Z,15.60
2018-05-10T15:33:57.458Z,15.60
2018-05-10T15:36:25.737Z,15.10
2018-05-10T15:38:53.990Z,15.30
2018-05-10T15:41:22.567Z,15.30
2018-05-10T15:43:50.046Z,15.30
2018-05-10T15:46:18.305Z,14.50
2018-05-10T15:48:45.802Z,14.40
2018-05-10T15:51:13.352Z,14.40
2018-05-10T15:53:40.848Z,14.60
2018-05-10T15:56:08.348Z,14.50
2018-05-10T15:58:36.602Z,14.40
2018-05-10T16:01:04.205Z,14.40
2018-05-10T16:03:31.722Z,14.60
2018-05-10T16:05:59.216Z,14.40
2018-05-10T16:08:26.717Z,14.30
2018-05-10T16:10:54.215Z,14.30
2018-05-10T16:13:22.893Z,14.40
2018-05-10T16:15:50.636Z,14.40
2018-05-10T16:18:19.220Z,14.60
2018-05-10T16:20:46.985Z,14.60
2018-05-10T16:23:14.466Z,14.30
2018-05-10T16:25:41.982Z,14.30
2018-05-10T16:28:09.476Z,14.30
2018-05-10T16:30:37.764Z,14.30
2018-05-10T16:33:05.243Z,14.30
2018-05-10T16:35:32.755Z,14.50
2018-05-10T16:38:00.393Z,14.40
2018-05-10T16:40:28.242Z,14.30
2018-05-10T16:42:55.739Z,14.30
2018-05-10T16:45:23.238Z,14.20
2018-05-10T16:47:51.047Z,14.00
2018-05-10T16:50:18.529Z,14.00
2018-05-10T16:52:46.032Z,13.80
2018-05-10T16:55:13.583Z,13.80
2018-05-10T16:57:41.062Z,13.80
2018-05-10T17:00:08.558Z,13.50
2018-05-10T17:02:36.087Z,13.50
2018-05-10T17:05:03.690Z,13.70
2018-05-10T17:07:31.970Z,13.60
2018-05-10T17:09:59.815Z,13.50
2018-05-10T17:12:28.113Z,13.60
2018-05-10T17:14:56.355Z,13.60
2018-05-10T17:17:23.863Z,13.60
2018-05-10T17:19:51.341Z,13.60
2018-05-10T17:22:18.823Z,13.60
2018-05-10T17:24:46.318Z,13.50
2018-05-10T17:27:13.930Z,13.50
2018-05-10T17:29:41.422Z,13.60
2018-05-10T17:32:09.706Z,13.50
2018-05-10T17:34:37.956Z,13.50
2018-05-10T17:37:05.443Z,13.50
2018-05-10T17:39:33.802Z,13.50
2018-05-10T17:42:01.968Z,13.30
2018-05-10T17:44:29.466Z,13.30
2018-05-10T17:46:56.962Z,13.40
2018-05-10T17:49:24.564Z,13.40
2018-05-10T17:51:52.007Z,13.20
2018-05-10T17:54:20.552Z,13.20
2018-05-10T17:56:48.049Z,13.20
2018-05-10T17:59:16.294Z,13.10
2018-05-10T18:01:44.075Z,13.10
2018-05-10T18:04:11.613Z,13.10
2018-05-10T18:06:39.175Z,13.10
2018-05-10T18:09:07.011Z,13.10
2018-05-10T18:11:34.614Z,13.10
2018-05-10T18:14:02.164Z,13.20
2018-05-10T18:16:29.953Z,13.10
2018-05-10T18:18:58.210Z,13.00
2018-05-10T18:21:25.687Z,13.00
2018-05-10T18:23:54.561Z,13.00
2018-05-10T18:26:22.066Z,13.00
2018-05-10T18:28:49.604Z,12.90
2018-05-10T18:31:18.185Z,12.90
2018-05-10T18:33:46.434Z,12.80
2018-05-10T18:36:13.941Z,12.80
2018-05-10T18:38:41.706Z,12.70
2018-05-10T18:41:09.370Z,12.70
2018-05-10T18:43:37.030Z,12.70
2018-05-10T18:46:04.817Z,12.80
2018-05-10T18:53:56.521Z,12.80
2018-05-10T18:56:24.024Z,12.60
2018-05-10T18:58:51.536Z,12.70
2018-05-10T19:01:19.786Z,12.60
2018-05-10T19:03:47.575Z,12.60
2018-05-10T19:06:15.839Z,12.50
2018-05-10T19:08:43.355Z,12.50
2018-05-10T19:11:11.144Z,12.50
2018-05-10T19:13:38.662Z,12.40
2018-05-10T19:16:06.135Z,12.40
2018-05-10T19:18:33.887Z,12.50
2018-05-10T19:21:01.378Z,12.50
2018-05-10T19:23:28.896Z,12.40
2018-05-10T19:25:56.390Z,12.40
2018-05-10T19:28:23.898Z,12.40
2018-05-10T19:30:51.388Z,12.40
2018-05-10T19:33:19.490Z,12.30
2018-05-10T19:35:47.012Z,12.30
2018-05-10T19:38:14.490Z,12.10
2018-05-10T19:40:42.344Z,12.10
2018-05-10T19:43:10.146Z,12.10
2018-05-10T19:45:37.630Z,12.10
2018-05-10T19:48:05.154Z,11.90
2018-05-10T19:50:32.651Z,11.90
2018-05-10T19:53:00.146Z,11.70
2018-05-10T19:55:28.456Z,11.70
2018-05-10T19:57:56.722Z,11.40
2018-05-10T20:00:25.003Z,11.40
2018-05-10T20:02:52.871Z,11.40
2018-05-10T20:05:20.435Z,11.30
2018-05-10T20:07:48.715Z,11.10
2018-05-10T20:10:17.258Z,11.00
2018-05-10T20:12:44.748Z,11.00
2018-05-10T20:15:12.999Z,11.00
2018-05-10T20:17:40.512Z,11.00
2018-05-10T20:20:08.091Z,11.00
2018-05-10T20:22:35.595Z,11.10
2018-05-10T20:25:03.394Z,11.00
2018-05-10T20:27:30.929Z,10.90
2018-05-10T20:29:59.217Z,11.00
2018-05-10T20:32:27.545Z,10.90
2018-05-10T20:34:55.739Z,11.00
2018-05-10T20:37:23.232Z,11.00
2018-05-10T20:39:51.183Z,10.80
2018-05-10T20:42:18.698Z,10.90
2018-05-10T20:44:46.179Z,10.80
2018-05-10T20:47:14.971Z,10.50
2018-05-10T20:49:42.464Z,10.50
2018-05-10T20:52:10.018Z,10.80
2018-05-10T20:54:37.582Z,10.90
2018-05-10T20:57:05.102Z,10.90
2018-05-10T20:59:33.377Z,10.70
2018-05-10T21:02:01.169Z,10.70
2018-05-10T21:04:29.403Z,10.70
2018-05-10T21:06:56.894Z,10.70
2018-05-10T21:09:24.646Z,10.70
2018-05-10T21:11:52.156Z,10.70
2018-05-10T21:14:19.668Z,10.80
2018-05-10T21:16:48.237Z,10.70
2018-05-10T21:19:15.720Z,10.60
2018-05-10T21:21:43.292Z,10.60
2018-05-10T21:24:11.085Z,10.60
2018-05-10T21:26:38.577Z,10.60
2018-05-10T21:29:06.155Z,10.50
2018-05-10T21:31:34.979Z,10.50
2018-05-10T21:34:02.584Z,10.40
2018-05-10T21:36:30.748Z,10.50
2018-05-10T21:38:58.519Z,10.50
2018-05-10T21:41:26.011Z,10.50
2018-05-10T21:43:53.486Z,10.50
2018-05-10T21:46:21.278Z,10.50
2018-05-10T21:48:48.806Z,10.60
2018-05-10T21:51:16.346Z,10.50
2018-05-10T21:53:44.114Z,10.40
2018-05-10T21:56:11.600Z,10.40
2018-05-10T21:58:39.079Z,10.40
2018-05-10T22:01:06.895Z,10.20
2018-05-10T22:03:34.374Z,10.10
2018-05-10T22:06:01.875Z,10.10
2018-05-10T22:08:29.615Z,10.00
2018-05-10T22:10:57.100Z,10.10
2018-05-10T22:13:25.368Z,10.20
2018-05-10T22:15:53.139Z,10.10
2018-05-10T22:18:21.386Z,10.20
2018-05-10T22:20:48.904Z,10.10
2018-05-10T22:23:16.642Z,10.20
2018-05-10T22:25:44.173Z,10.10
2018-05-10T22:28:11.730Z,10.20
2018-05-10T22:30:41.113Z,10.10
2018-05-10T22:33:08.577Z,10.10
2018-05-10T22:35:36.150Z,10.10
2018-05-10T22:38:03.915Z,10.10
2018-05-10T22:40:31.382Z,10.00
2018-05-10T22:42:58.903Z,10.00
2018-05-10T22:45:26.402Z,10.00
2018-05-10T22:47:54.760Z,10.00
2018-05-10T22:50:22.238Z,10.00
2018-05-10T22:52:50.044Z,10.00
2018-05-10T22:55:17.558Z,9.90
2018-05-10T22:57:45.049Z,9.90
2018-05-10T23:00:12.833Z,10.00
2018-05-10T23:02:40.297Z,9.90
2018-05-10T23:05:07.772Z,9.90
2018-05-10T23:07:35.562Z,9.70
2018-05-10T23:10:03.834Z,9.80
2018-05-10T23:12:32.114Z,9.80
2018-05-10T23:15:00.696Z,9.80
2018-05-10T23:17:28.960Z,9.90
2018-05-10T23:19:56.459Z,9.80
2018-05-10T23:22:23.979Z,9.80
2018-05-10T23:24:51.471Z,9.70
2018-05-10T23:27:18.999Z,9.70
2018-05-10T23:29:46.796Z,9.80
2018-05-10T23:32:14.302Z,9.70
2018-05-10T23:34:41.794Z,9.60
2018-05-10T23:37:09.599Z,9.60
2018-05-10T23:39:37.095Z,9.60
2018-05-10T23:42:04.587Z,9.60
2018-05-10T23:44:32.373Z,9.70
2018-05-10T23:46:59.879Z,9.60
2018-05-10T23:49:28.192Z,9.50
2018-05-10T23:51:55.996Z,9.50
2018-05-10T23:54:23.560Z,9.50
2018-05-10T23:56:51.159Z,9.50
2018-05-10T23:59:19.030Z,9.50
